createdAt,value
2022-12-08T00:00:12.180Z,3.58
2022-12-08T00:02:42.682Z,3.47
2022-12-08T00:05:28.866Z,3.35
2022-12-08T00:08:14.916Z,3.45
2022-12-08T00:10:49.592Z,4.13
2022-12-08T00:13:18.611Z,4.25
2022-12-08T00:15:48.435Z,3.50
2022-12-08T00:18:17.126Z,3.97
2022-12-08T00:20:45.495Z,3.22
2022-12-08T00:23:14.036Z,3.20
2022-12-08T00:25:42.555Z,3.03
2022-12-08T00:28:11.031Z,2.65
2022-12-08T00:30:41.404Z,3.20
2022-12-08T00:33:11.691Z,3.42
2022-12-08T00:35:43.303Z,2.55
2022-12-08T00:38:11.930Z,2.55
2022-12-08T00:40:45.338Z,3.63
2022-12-08T00:43:14.158Z,3.45
2022-12-08T00:45:42.674Z,3.67
2022-12-08T00:48:12.662Z,3.78
2022-12-08T00:50:41.123Z,3.13
2022-12-08T00:55:37.699Z,2.85
2022-12-08T00:58:06.077Z,3.42
2022-12-08T01:00:34.568Z,2.53
2022-12-08T01:03:03.169Z,3.40
2022-12-08T01:05:33.165Z,3.33
2022-12-08T01:08:01.717Z,3.78
2022-12-08T01:10:30.236Z,3.35
2022-12-08T01:12:59.648Z,3.83
2022-12-08T01:15:28.111Z,4.25
2022-12-08T01:17:57.049Z,2.80
2022-12-08T01:20:25.598Z,3.58
2022-12-08T01:22:55.497Z,3.55
2022-12-08T01:25:23.911Z,2.65
2022-12-08T01:30:22.186Z,2.00
2022-12-08T01:32:50.667Z,2.60
2022-12-08T01:35:19.287Z,3.33
2022-12-08T01:37:47.655Z,3.05
2022-12-08T01:40:18.063Z,3.05
2022-12-08T01:42:46.585Z,3.88
2022-12-08T01:45:22.607Z,3.20
2022-12-08T01:47:55.873Z,3.78
2022-12-08T01:50:24.945Z,3.10
2022-12-08T01:52:58.818Z,3.20
2022-12-08T01:55:34.149Z,3.63
2022-12-08T01:58:07.273Z,3.05
2022-12-08T02:00:35.763Z,3.60
2022-12-08T02:03:08.334Z,3.35
2022-12-08T02:05:40.125Z,3.60
2022-12-08T02:08:12.248Z,3.17
2022-12-08T02:10:43.753Z,2.65
2022-12-08T02:13:16.300Z,3.03
2022-12-08T02:15:59.204Z,2.70
2022-12-08T02:18:41.241Z,3.47
2022-12-08T02:21:15.172Z,3.10
2022-12-08T02:23:55.155Z,2.95
2022-12-08T02:26:57.012Z,2.97
2022-12-08T02:29:43.854Z,3.20
2022-12-08T02:32:42.414Z,3.17
2022-12-08T02:35:15.849Z,3.13
2022-12-08T02:37:51.454Z,3.03
2022-12-08T02:40:27.305Z,2.60
2022-12-08T02:42:59.874Z,3.35
2022-12-08T02:45:33.189Z,3.42
2022-12-08T02:48:10.073Z,2.83
2022-12-08T02:50:39.950Z,2.50
2022-12-08T02:55:48.333Z,3.17
2022-12-08T02:58:40.429Z,2.45
2022-12-08T03:01:34.842Z,3.03
2022-12-08T03:04:09.717Z,3.20
2022-12-08T03:06:46.984Z,2.50
2022-12-08T03:09:21.003Z,2.93
2022-12-08T03:11:55.004Z,2.65
2022-12-08T03:14:24.260Z,3.65
2022-12-08T03:16:56.707Z,3.47
2022-12-08T03:19:29.230Z,2.38
2022-12-08T03:22:06.583Z,3.15
2022-12-08T03:24:38.308Z,2.83
2022-12-08T03:27:09.598Z,3.17
2022-12-08T03:29:38.207Z,3.13
2022-12-08T03:32:12.858Z,3.00
2022-12-08T03:34:43.693Z,3.17
2022-12-08T03:37:14.422Z,3.30
2022-12-08T03:39:43.249Z,3.60
2022-12-08T03:42:11.693Z,3.03
2022-12-08T03:44:40.361Z,2.78
2022-12-08T03:47:08.785Z,3.00
2022-12-08T03:49:37.236Z,2.83
2022-12-08T03:52:05.883Z,2.70
2022-12-08T03:54:35.688Z,3.95
2022-12-08T03:57:06.773Z,3.83
2022-12-08T03:59:35.284Z,3.25
2022-12-08T04:02:03.764Z,3.05
2022-12-08T04:04:32.347Z,3.70
2022-12-08T04:07:00.761Z,3.03
2022-12-08T04:09:29.324Z,3.85
2022-12-08T04:11:59.110Z,3.42
2022-12-08T04:14:32.629Z,3.47
2022-12-08T04:17:01.367Z,2.78
2022-12-08T04:19:29.880Z,3.05
2022-12-08T04:21:58.354Z,2.65
2022-12-08T04:24:27.201Z,3.42
2022-12-08T04:26:55.676Z,3.83
2022-12-08T04:29:25.584Z,2.92
2022-12-08T04:31:54.096Z,3.90
2022-12-08T04:34:22.550Z,3.30
2022-12-08T04:36:51.042Z,3.33
2022-12-08T04:39:19.489Z,3.47
2022-12-08T04:41:47.902Z,3.35
2022-12-08T04:44:16.341Z,2.88
2022-12-08T04:46:46.308Z,2.95
2022-12-08T04:49:14.786Z,2.30
2022-12-08T04:51:43.195Z,4.38
2022-12-08T04:54:11.743Z,2.90
2022-12-08T04:56:40.153Z,2.85
2022-12-08T04:59:09.280Z,2.50
2022-12-08T05:01:37.738Z,2.70
2022-12-08T05:04:07.705Z,3.10
2022-12-08T05:06:36.119Z,2.45
2022-12-08T05:11:33.372Z,2.80
2022-12-08T05:14:01.841Z,2.63
2022-12-08T05:16:30.368Z,3.28
2022-12-08T05:18:58.754Z,2.75
2022-12-08T05:21:28.644Z,3.10
2022-12-08T05:23:57.132Z,3.45
2022-12-08T05:26:25.533Z,2.92
2022-12-08T05:28:54.257Z,3.00
2022-12-08T05:31:22.788Z,3.22
2022-12-08T05:33:52.685Z,3.28
2022-12-08T05:36:21.888Z,2.70
2022-12-08T05:38:51.745Z,2.80
2022-12-08T05:41:22.154Z,3.05
2022-12-08T05:43:51.034Z,3.13
2022-12-08T05:46:19.879Z,3.17
2022-12-08T05:48:48.401Z,2.33
2022-12-08T05:51:19.874Z,3.50
2022-12-08T05:53:49.737Z,2.42
2022-12-08T05:56:20.357Z,2.55
2022-12-08T05:58:49.135Z,2.47
2022-12-08T06:01:22.490Z,4.10
2022-12-08T06:03:51.390Z,3.05
2022-12-08T06:06:20.122Z,3.08
2022-12-08T06:08:48.759Z,2.88
2022-12-08T06:11:23.580Z,3.38
2022-12-08T06:13:52.507Z,2.50
2022-12-08T06:16:23.965Z,2.97
2022-12-08T06:18:52.507Z,3.60
2022-12-08T06:21:21.331Z,3.15
2022-12-08T06:23:53.525Z,2.88
2022-12-08T06:26:25.207Z,3.45
2022-12-08T06:28:54.129Z,3.45
2022-12-08T06:31:24.274Z,2.45
2022-12-08T06:33:53.892Z,3.65
2022-12-08T06:36:25.353Z,3.88
2022-12-08T06:38:54.286Z,2.90
2022-12-08T06:41:24.097Z,2.60
2022-12-08T06:43:52.650Z,2.72
2022-12-08T06:46:21.782Z,3.97
2022-12-08T06:48:53.752Z,3.30
2022-12-08T06:51:24.777Z,2.75
2022-12-08T06:53:53.330Z,2.85
2022-12-08T06:56:28.037Z,3.15
2022-12-08T06:58:58.414Z,2.33
2022-12-08T07:01:26.967Z,3.10
2022-12-08T07:03:55.323Z,3.28
2022-12-08T07:06:25.534Z,2.83
2022-12-08T07:08:54.052Z,3.08
2022-12-08T07:11:23.921Z,2.83
2022-12-08T07:13:52.639Z,2.83
2022-12-08T07:16:21.085Z,3.35
2022-12-08T07:18:49.642Z,3.50
2022-12-08T07:21:19.151Z,3.00
2022-12-08T07:23:54.348Z,3.50
2022-12-08T07:28:55.688Z,2.50
2022-12-08T07:31:26.219Z,3.22
2022-12-08T07:33:55.203Z,2.47
2022-12-08T07:36:24.686Z,1.95
2022-12-08T07:38:54.380Z,2.40
2022-12-08T07:41:25.145Z,2.95
2022-12-08T07:43:55.413Z,3.92
2022-12-08T07:46:25.338Z,2.53
2022-12-08T07:48:54.702Z,3.38
2022-12-08T07:51:23.176Z,1.58
2022-12-08T07:53:54.701Z,3.13
2022-12-08T07:56:24.433Z,2.83
2022-12-08T07:58:54.501Z,2.75
2022-12-08T08:01:25.536Z,2.38
2022-12-08T08:03:55.080Z,3.15
2022-12-08T08:06:23.952Z,2.80
2022-12-08T08:08:52.356Z,2.70
2022-12-08T08:11:21.886Z,2.92
2022-12-08T08:13:50.863Z,3.10
2022-12-08T08:16:21.596Z,3.22
2022-12-08T08:18:50.966Z,2.50
2022-12-08T08:24:09.578Z,3.25
2022-12-08T08:26:38.215Z,3.28
2022-12-08T08:29:06.895Z,3.75
2022-12-08T08:31:36.896Z,3.15
2022-12-08T08:34:06.818Z,2.83
2022-12-08T08:37:11.170Z,3.03
2022-12-08T08:39:39.872Z,2.75
2022-12-08T08:42:08.300Z,2.88
2022-12-08T08:44:37.551Z,3.35
2022-12-08T08:47:07.542Z,2.83
2022-12-08T08:49:36.244Z,3.00
2022-12-08T08:52:05.250Z,3.45
2022-12-08T08:54:34.307Z,3.10
2022-12-08T08:57:03.053Z,3.63
2022-12-08T08:59:33.363Z,3.63
2022-12-08T09:02:02.074Z,4.10
2022-12-08T09:04:32.200Z,3.50
2022-12-08T09:07:00.692Z,3.00
2022-12-08T09:11:58.581Z,3.35
2022-12-08T09:14:27.997Z,3.42
2022-12-08T09:16:56.498Z,3.70
2022-12-08T09:19:24.975Z,3.90
2022-12-08T09:21:57.178Z,3.50
2022-12-08T09:24:25.729Z,3.33
2022-12-08T09:26:54.114Z,3.25
2022-12-08T09:29:22.616Z,3.80
2022-12-08T09:39:17.976Z,2.95
2022-12-08T09:41:50.198Z,2.60
2022-12-08T09:44:39.442Z,2.95
2022-12-08T09:47:19.094Z,2.67
2022-12-08T09:49:57.412Z,3.75
2022-12-08T09:55:00.381Z,3.58
2022-12-08T09:57:30.460Z,2.65
2022-12-08T10:00:02.730Z,3.60
2022-12-08T10:02:34.257Z,3.90
2022-12-08T10:05:02.940Z,3.80
2022-12-08T10:07:44.724Z,3.50
2022-12-08T10:10:27.801Z,4.47
2022-12-08T10:13:04.969Z,2.85
2022-12-08T10:15:48.400Z,3.38
2022-12-08T10:18:19.585Z,3.90
2022-12-08T10:20:49.597Z,3.25
2022-12-08T10:23:28.956Z,4.22
2022-12-08T10:26:03.556Z,4.00
2022-12-08T10:28:34.339Z,4.03
2022-12-08T10:31:03.057Z,4.30
2022-12-08T10:33:34.731Z,4.00
2022-12-08T10:36:04.945Z,4.43
2022-12-08T10:38:34.680Z,3.72
2022-12-08T10:41:08.358Z,3.30
2022-12-08T10:43:39.794Z,4.18
2022-12-08T10:46:17.513Z,3.38
2022-12-08T10:48:52.232Z,3.15
2022-12-08T10:51:25.937Z,4.38
2022-12-08T10:53:54.506Z,5.15
2022-12-08T10:56:27.090Z,4.07
2022-12-08T10:59:12.245Z,3.97
2022-12-08T11:01:42.563Z,4.18
2022-12-08T11:04:16.814Z,3.55
2022-12-08T11:06:45.880Z,4.65
2022-12-08T11:09:27.434Z,3.72
2022-12-08T11:11:59.923Z,4.10
2022-12-08T11:14:31.306Z,4.03
2022-12-08T11:17:07.221Z,4.30
2022-12-08T11:19:39.108Z,4.53
2022-12-08T11:22:23.208Z,4.38
2022-12-08T11:25:00.153Z,4.07
2022-12-08T11:27:30.958Z,4.95
2022-12-08T11:29:59.650Z,4.25
2022-12-08T11:32:28.072Z,4.00
2022-12-08T11:35:02.797Z,3.60
2022-12-08T11:37:41.607Z,4.40
2022-12-08T11:40:18.841Z,4.45
2022-12-08T11:42:57.651Z,4.38
2022-12-08T11:45:31.264Z,4.97
2022-12-08T11:48:08.656Z,2.85
2022-12-08T11:50:44.216Z,3.67
2022-12-08T11:53:20.689Z,4.15
2022-12-08T11:55:56.419Z,4.90
2022-12-08T11:58:33.566Z,4.80
2022-12-08T12:01:02.734Z,4.28
2022-12-08T12:03:37.492Z,5.35
2022-12-08T12:06:53.374Z,3.72
2022-12-08T12:09:30.462Z,4.25
2022-12-08T12:12:16.765Z,4.43
2022-12-08T12:15:20.667Z,4.40
2022-12-08T12:17:54.380Z,3.42
2022-12-08T12:20:27.298Z,4.25
2022-12-08T12:23:02.340Z,3.97
2022-12-08T12:25:31.205Z,4.85
2022-12-08T12:28:03.952Z,3.47
2022-12-08T12:30:55.191Z,4.75
2022-12-08T12:33:26.387Z,5.18
2022-12-08T12:35:58.532Z,4.03
2022-12-08T12:38:50.433Z,3.60
2022-12-08T12:41:25.716Z,4.93
2022-12-08T12:44:25.809Z,4.07
2022-12-08T12:46:58.066Z,5.35
2022-12-08T12:49:53.840Z,4.82
2022-12-08T12:52:49.466Z,4.68
2022-12-08T12:55:23.720Z,5.32
2022-12-08T12:57:54.322Z,5.13
2022-12-08T13:00:25.456Z,4.57
2022-12-08T13:02:55.608Z,4.97
2022-12-08T13:05:28.259Z,4.00
2022-12-08T13:08:00.307Z,4.93
2022-12-08T13:10:32.477Z,5.20
2022-12-08T13:13:08.183Z,5.40
2022-12-08T13:15:39.179Z,5.13
2022-12-08T13:18:08.913Z,6.15
2022-12-08T13:20:48.266Z,5.18
2022-12-08T13:23:45.809Z,3.95
2022-12-08T13:26:18.562Z,4.30
2022-12-08T13:29:15.791Z,4.50
2022-12-08T13:31:50.555Z,5.00
2022-12-08T13:34:24.464Z,5.85
2022-12-08T13:37:03.654Z,5.00
2022-12-08T13:39:43.142Z,4.80
2022-12-08T13:42:21.596Z,5.20
2022-12-08T13:48:20.430Z,5.28
2022-12-08T13:57:02.689Z,5.00
2022-12-08T13:59:30.549Z,4.57
2022-12-08T14:02:02.574Z,4.60
2022-12-08T14:04:47.969Z,6.72
2022-12-08T14:07:20.241Z,5.80
2022-12-08T14:09:55.530Z,4.90
2022-12-08T14:12:26.436Z,5.10
2022-12-08T14:15:03.686Z,4.85
2022-12-08T14:17:33.556Z,4.43
2022-12-08T14:20:04.054Z,7.10
2022-12-08T14:22:37.364Z,5.78
2022-12-08T14:25:12.408Z,5.88
2022-12-08T14:27:41.481Z,5.43
2022-12-08T14:30:20.555Z,4.65
2022-12-08T14:32:51.497Z,5.78
2022-12-08T14:35:23.604Z,5.32
2022-12-08T14:37:56.254Z,4.85
2022-12-08T14:40:35.074Z,5.95
2022-12-08T14:43:17.047Z,5.25
2022-12-08T14:45:53.575Z,6.10
2022-12-08T14:48:25.484Z,6.47
2022-12-08T14:51:05.437Z,6.80
2022-12-08T14:53:40.452Z,6.20
2022-12-08T14:56:20.157Z,6.90
2022-12-08T14:58:50.539Z,6.57
2022-12-08T15:01:23.811Z,5.75
2022-12-08T15:03:52.468Z,7.35
2022-12-08T15:06:23.592Z,6.38
2022-12-08T15:08:55.969Z,5.82
2022-12-08T15:11:43.835Z,5.55
2022-12-08T15:14:31.799Z,5.97
2022-12-08T15:17:01.743Z,6.57
2022-12-08T15:19:32.286Z,6.13
2022-12-08T15:22:13.443Z,7.35
2022-12-08T15:24:41.992Z,6.88
2022-12-08T15:29:47.642Z,5.97
2022-12-08T15:32:19.622Z,6.00
2022-12-08T15:34:48.299Z,6.53
2022-12-08T15:37:25.842Z,7.43
2022-12-08T15:39:55.167Z,6.68
2022-12-08T15:42:25.042Z,7.75
2022-12-08T15:45:13.042Z,7.30
2022-12-08T15:47:48.995Z,6.03
2022-12-08T15:50:20.061Z,5.93
2022-12-08T15:52:51.762Z,7.05
2022-12-08T15:55:22.071Z,6.18
2022-12-08T16:00:52.656Z,8.27
2022-12-08T16:09:12.799Z,6.45
2022-12-08T16:12:08.246Z,6.70
2022-12-08T16:17:33.237Z,7.47
2022-12-08T16:20:02.715Z,7.13
2022-12-08T16:25:23.911Z,6.80
2022-12-08T16:28:02.948Z,7.00
2022-12-08T16:30:35.280Z,7.75
2022-12-08T16:33:03.871Z,8.13
2022-12-08T16:35:33.709Z,7.82
2022-12-08T16:38:02.838Z,7.22
2022-12-08T16:40:32.424Z,8.23
2022-12-08T16:43:01.600Z,7.25
2022-12-08T16:45:32.289Z,7.28
2022-12-08T16:48:03.184Z,8.15
2022-12-08T16:50:34.220Z,8.63
2022-12-08T16:53:07.007Z,7.90
2022-12-08T16:55:37.004Z,7.57
2022-12-08T16:58:07.960Z,7.07
2022-12-08T17:00:37.463Z,8.07
2022-12-08T17:03:09.274Z,7.85
2022-12-08T17:05:56.766Z,10.05
2022-12-08T17:08:25.679Z,10.80
2022-12-08T17:11:07.472Z,8.18
2022-12-08T17:13:36.400Z,7.88
2022-12-08T17:16:13.778Z,9.35
2022-12-08T17:18:43.851Z,8.35
2022-12-08T17:21:20.320Z,9.32
2022-12-08T17:23:58.464Z,7.80
2022-12-08T17:26:27.322Z,8.85
2022-12-08T17:29:00.989Z,8.05
2022-12-08T17:31:36.381Z,9.43
2022-12-08T17:34:34.606Z,7.43
2022-12-08T17:39:41.150Z,7.45
2022-12-08T17:42:26.040Z,8.15
2022-12-08T17:44:57.718Z,9.13
2022-12-08T17:47:26.714Z,8.38
2022-12-08T17:49:57.031Z,8.90
2022-12-08T17:52:25.532Z,8.90
2022-12-08T17:54:54.075Z,7.50
2022-12-08T17:57:22.604Z,8.75
2022-12-08T18:02:19.612Z,8.00
2022-12-08T18:04:51.155Z,8.20
2022-12-08T18:07:21.230Z,7.82
2022-12-08T18:09:51.716Z,10.05
2022-12-08T18:12:23.648Z,9.73
2022-12-08T18:14:58.469Z,7.95
2022-12-08T18:17:27.096Z,9.18
2022-12-08T18:19:55.571Z,8.38
2022-12-08T18:24:55.667Z,9.32
2022-12-08T18:27:24.463Z,9.27
2022-12-08T18:29:53.087Z,8.85
2022-12-08T18:32:23.875Z,10.65
2022-12-08T18:34:52.787Z,7.90
2022-12-08T18:37:21.254Z,8.88
2022-12-08T18:42:28.352Z,9.10
2022-12-08T18:45:01.746Z,8.88
2022-12-08T18:47:33.597Z,9.65
2022-12-08T18:50:02.167Z,9.30
2022-12-08T18:52:32.476Z,8.45
2022-12-08T18:55:07.089Z,9.38
2022-12-08T18:57:36.310Z,10.27
2022-12-08T19:00:10.276Z,9.25
2022-12-08T19:02:42.628Z,9.45
2022-12-08T19:05:15.409Z,9.13
2022-12-08T19:07:47.502Z,9.57
2022-12-08T19:10:17.426Z,9.40
2022-12-08T19:12:51.110Z,9.98
2022-12-08T19:15:20.239Z,11.50
2022-12-08T19:17:48.832Z,9.27
2022-12-08T19:20:17.896Z,9.10
2022-12-08T19:22:46.351Z,9.50
2022-12-08T19:27:47.479Z,9.60
2022-12-08T19:30:22.325Z,9.77
2022-12-08T19:32:54.114Z,9.82
2022-12-08T19:35:22.625Z,10.48
2022-12-08T19:37:51.686Z,11.15
2022-12-08T19:40:40.303Z,10.50
2022-12-08T19:43:42.803Z,9.90
2022-12-08T19:46:11.793Z,9.85
2022-12-08T19:48:40.392Z,10.25
2022-12-08T19:53:37.207Z,9.65
2022-12-08T19:56:06.107Z,9.73
2022-12-08T19:58:36.011Z,10.05
2022-12-08T20:01:04.633Z,9.50
2022-12-08T20:06:01.361Z,9.70
2022-12-08T20:11:07.390Z,10.00
2022-12-08T20:13:45.925Z,10.23
2022-12-08T20:16:16.108Z,9.68
2022-12-08T20:18:49.699Z,9.88
2022-12-08T20:21:19.528Z,10.50
2022-12-08T20:24:03.309Z,12.18
2022-12-08T20:26:31.923Z,11.80
2022-12-08T20:31:32.111Z,10.57
2022-12-08T20:34:28.246Z,11.23
2022-12-08T20:36:59.247Z,10.20
2022-12-08T20:39:27.765Z,10.65
2022-12-08T20:41:56.880Z,11.93
2022-12-08T20:44:27.077Z,11.40
2022-12-08T20:46:58.926Z,11.80
2022-12-08T20:49:32.889Z,9.82
2022-12-08T20:52:03.539Z,10.82
2022-12-08T20:54:32.161Z,11.40
2022-12-08T20:57:03.546Z,11.27
2022-12-08T20:59:33.991Z,12.20
2022-12-08T21:02:03.534Z,11.13
2022-12-08T21:04:32.435Z,12.38
2022-12-08T21:07:01.302Z,11.30
2022-12-08T21:09:29.951Z,10.65
2022-12-08T21:11:58.888Z,11.45
2022-12-08T21:14:27.353Z,11.48
2022-12-08T21:16:57.284Z,11.20
2022-12-08T21:19:26.096Z,11.38
2022-12-08T21:29:20.296Z,11.80
2022-12-08T21:31:48.853Z,10.32
2022-12-08T21:34:18.911Z,11.60
2022-12-08T21:36:47.562Z,12.65
2022-12-08T21:39:16.191Z,12.07
2022-12-08T21:44:35.676Z,11.45
2022-12-08T21:47:04.496Z,11.88
2022-12-08T21:49:36.022Z,10.75
2022-12-08T21:52:04.931Z,11.38
2022-12-08T21:54:33.420Z,10.70
2022-12-08T22:01:58.729Z,10.85
2022-12-08T22:04:27.499Z,11.25
2022-12-08T22:06:57.503Z,12.27
2022-12-08T22:09:26.579Z,10.98
2022-12-08T22:11:55.207Z,11.27
2022-12-08T22:14:23.733Z,11.43
2022-12-08T22:19:21.595Z,12.32
2022-12-08T22:21:50.655Z,12.00
2022-12-08T22:24:20.609Z,12.05
2022-12-08T22:26:49.129Z,12.85
2022-12-08T22:29:17.622Z,10.43
2022-12-08T22:34:18.140Z,11.35
2022-12-08T22:36:46.629Z,11.38
2022-12-08T22:39:15.035Z,12.40
2022-12-08T22:44:15.357Z,11.43
2022-12-08T22:46:44.081Z,11.80
2022-12-08T22:49:12.666Z,11.10
2022-12-08T22:54:11.592Z,11.93
2022-12-08T22:56:40.467Z,12.20
2022-12-08T23:01:38.820Z,11.70
2022-12-08T23:04:10.309Z,10.98
2022-12-08T23:06:42.827Z,12.48
2022-12-08T23:11:39.851Z,9.13
2022-12-08T23:19:07.215Z,10.77
2022-12-08T23:21:35.771Z,11.82
2022-12-08T23:24:05.273Z,11.35
2022-12-08T23:26:35.466Z,11.55
2022-12-08T23:29:04.609Z,11.25
2022-12-08T23:31:33.448Z,11.70
2022-12-08T23:34:03.563Z,13.02
2022-12-08T23:36:32.126Z,11.63
2022-12-08T23:41:28.747Z,11.27
2022-12-08T23:43:57.160Z,10.18
2022-12-08T23:48:54.437Z,11.38
2022-12-08T23:51:24.361Z,11.27
2022-12-08T23:53:53.144Z,13.30
2022-12-08T23:56:24.370Z,13.05
2022-12-08T23:58:55.513Z,12.15
